Time;durP1;ratioP1;P1;durP2;ratioP2;P2;SDS_P1;SDS_P2;PMS_P1;PMS_P2;Temp;Humidity;BMP_temperature;BMP_pressure;BME280_temperature;BME280_humidity;BME280_pressure;Samples;Min_cycle;Max_cycle;Signal;HPM_P1;HPM_P2
2023/12/03 00:02:07;;;;;;;25.70;14.25;;;;;;;;;;5085709;28;20040;-70
2023/12/03 00:04:33;;;;;;;28.52;14.75;;;;;;;;;;5065798;28;20054;-70
2023/12/03 00:06:58;;;;;;;26.20;13.48;;;;;;;;;;5088565;28;20024;-71
2023/12/03 00:09:23;;;;;;;25.98;13.90;;;;;;;;;;5093342;28;20473;-70
2023/12/03 00:11:49;;;;;;;27.17;13.85;;;;;;;;;;5088727;28;20482;-71
2023/12/03 00:14:14;;;;;;;24.73;14.10;;;;;;;;;;5080184;28;20082;-70
2023/12/03 00:16:39;;;;;;;27.20;14.07;;;;;;;;;;5073734;28;20059;-70
2023/12/03 00:19:04;;;;;;;27.90;14.00;;;;;;;;;;5090409;28;20272;-70
2023/12/03 00:21:30;;;;;;;23.27;14.07;;;;;;;;;;5069069;28;20276;-72
2023/12/03 00:23:55;;;;;;;23.77;12.98;;;;;;;;;;5082991;28;20455;-71
2023/12/03 00:26:20;;;;;;;24.13;13.80;;;;;;;;;;5080158;28;20052;-71
2023/12/03 00:28:46;;;;;;;20.88;12.60;;;;;;;;;;5083535;28;20020;-71
2023/12/03 00:31:11;;;;;;;24.17;13.55;;;;;;;;;;5089600;28;20023;-71
2023/12/03 00:33:36;;;;;;;24.48;12.55;;;;;;;;;;5073358;28;20093;-71
2023/12/03 00:36:02;;;;;;;24.95;12.77;;;;;;;;;;5085681;28;20020;-71
2023/12/03 00:38:27;;;;;;;26.08;12.93;;;;;;;;;;5081584;28;20027;-72
2023/12/03 00:40:53;;;;;;;24.48;13.48;;;;;;;;;;5081248;28;20151;-71
2023/12/03 00:43:18;;;;;;;25.05;12.55;;;;;;;;;;5090948;28;20395;-71
2023/12/03 00:45:43;;;;;;;26.13;13.88;;;;;;;;;;5071697;28;20618;-71
2023/12/03 00:48:09;;;;;;;27.70;14.32;;;;;;;;;;5084669;28;20016;-72
2023/12/03 00:50:34;;;;;;;28.45;14.13;;;;;;;;;;5077353;28;20059;-71
2023/12/03 00:52:59;;;;;;;26.55;13.50;;;;;;;;;;5096022;28;20046;-72
2023/12/03 00:55:24;;;;;;;27.60;13.90;;;;;;;;;;5091495;28;20061;-72
2023/12/03 00:57:50;;;;;;;23.83;12.40;;;;;;;;;;5088755;28;20697;-72
2023/12/03 01:00:16;;;;;;;23.63;13.02;;;;;;;;;;5089405;28;20359;-72
2023/12/03 01:02:41;;;;;;;22.33;12.48;;;;;;;;;;5082286;28;20032;-71
2023/12/03 01:05:07;;;;;;;22.77;12.17;;;;;;;;;;5107453;28;20015;-71
2023/12/03 01:07:32;;;;;;;22.60;12.07;;;;;;;;;;5086119;28;20762;-71
2023/12/03 01:09:57;;;;;;;22.98;12.07;;;;;;;;;;5112251;28;20023;-71
2023/12/03 01:12:22;;;;;;;22.60;12.15;;;;;;;;;;5095137;28;20020;-72
2023/12/03 01:14:48;;;;;;;24.88;12.35;;;;;;;;;;5068229;28;20032;-72
2023/12/03 01:17:13;;;;;;;24.35;11.38;;;;;;;;;;5085840;28;20023;-72
2023/12/03 01:19:38;;;;;;;21.50;11.63;;;;;;;;;;5081495;28;20028;-71
2023/12/03 01:22:04;;;;;;;21.08;10.93;;;;;;;;;;5087034;28;20020;-71
2023/12/03 01:24:29;;;;;;;22.08;11.90;;;;;;;;;;5067545;28;20027;-70
2023/12/03 01:26:55;;;;;;;22.65;11.30;;;;;;;;;;5081390;28;20024;-71
2023/12/03 01:29:20;;;;;;;20.80;11.32;;;;;;;;;;5078740;28;20450;-70
2023/12/03 01:31:46;;;;;;;23.63;11.57;;;;;;;;;;5092153;28;20032;-71
2023/12/03 01:34:12;;;;;;;23.48;12.13;;;;;;;;;;5076704;28;20028;-70
2023/12/03 01:36:37;;;;;;;20.60;10.85;;;;;;;;;;5079155;28;20035;-71
2023/12/03 01:39:05;;;;;;;20.25;10.80;;;;;;;;;;5082526;28;20020;-70
2023/12/03 01:41:30;;;;;;;22.02;11.70;;;;;;;;;;5075297;28;20111;-70
2023/12/03 01:43:55;;;;;;;22.55;11.27;;;;;;;;;;5067791;28;20111;-70
2023/12/03 01:46:21;;;;;;;21.52;10.75;;;;;;;;;;5079661;28;20051;-71
2023/12/03 01:48:47;;;;;;;20.45;10.48;;;;;;;1.73;nan;100121.44;5086113;28;20107;-70
2023/12/03 01:51:14;;;;;;;22.08;11.75;;;;;;;1.73;nan;100179.34;5083028;28;20051;-70
2023/12/03 01:53:41;;;;;;;21.35;11.73;;;;;;;;;;5091367;28;20081;-71
2023/12/03 01:56:06;;;;;;;21.58;10.85;;;;;;;;;;5091967;28;20028;-70
2023/12/03 01:58:32;;;;;;;23.13;11.65;;;;;;;;;;5085955;28;20070;-71
2023/12/03 02:00:57;;;;;;;21.92;11.63;;;;;;;1.62;nan;100242.81;5078674;28;20047;-71
2023/12/03 02:03:24;;;;;;;22.17;11.00;;;;;;;1.64;nan;100196.75;5082966;28;20024;-71
2023/12/03 02:06:02;;;;;;;23.23;10.93;;;;;;;1.64;nan;100220.09;5087967;28;20217;-69
2023/12/03 02:08:28;;;;;;;21.95;11.18;;;;;;;1.47;nan;100133.75;5094183;28;20057;-71
2023/12/03 02:10:53;;;;;;;22.40;10.95;;;;;;;1.61;nan;100185.91;5082278;28;20020;-71
2023/12/03 02:13:19;;;;;;;21.90;11.25;;;;;;;;;;5057244;28;20021;-71
2023/12/03 02:15:44;;;;;;;21.55;11.50;;;;;;;;;;5082850;28;20032;-70
2023/12/03 02:18:10;;;;;;;22.65;11.95;;;;;;;;;;5071068;28;20029;-70
2023/12/03 02:20:35;;;;;;;24.38;11.95;;;;;;;;;;5085694;28;20060;-70
2023/12/03 02:23:01;;;;;;;24.03;11.10;;;;;;;;;;5079546;28;20078;-70
2023/12/03 02:25:26;;;;;;;21.60;11.10;;;;;;;;;;5068109;28;20744;-70
2023/12/03 02:27:51;;;;;;;20.92;10.90;;;;;;;;;;5082364;28;20383;-70
2023/12/03 02:30:17;;;;;;;22.85;11.02;;;;;;;;;;5089722;28;20076;-70
2023/12/03 02:32:42;;;;;;;20.33;10.60;;;;;;;;;;5087347;28;20471;-70
2023/12/03 02:35:07;;;;;;;19.63;10.73;;;;;;;;;;5077270;28;20538;-70
2023/12/03 02:37:33;;;;;;;21.88;10.57;;;;;;;;;;5083072;28;20043;-69
2023/12/03 02:39:58;;;;;;;18.58;10.43;;;;;;;;;;5087737;28;20599;-70
2023/12/03 02:42:23;;;;;;;22.03;10.50;;;;;;;;;;5087305;28;20023;-70
2023/12/03 02:44:48;;;;;;;20.00;9.98;;;;;;;;;;5085899;28;20300;-71
2023/12/03 02:47:14;;;;;;;21.30;10.13;;;;;;;;;;5078647;28;20528;-70
2023/12/03 02:49:39;;;;;;;19.90;10.85;;;;;;;;;;5069946;28;20325;-70
2023/12/03 02:52:04;;;;;;;19.13;10.23;;;;;;;;;;5087104;28;20024;-72
2023/12/03 02:54:30;;;;;;;23.73;10.07;;;;;;;;;;5089440;28;20260;-70
2023/12/03 02:56:55;;;;;;;19.48;9.93;;;;;;;;;;5077690;28;20685;-70
2023/12/03 02:59:20;;;;;;;17.03;9.23;;;;;;;;;;5090162;28;20033;-69
2023/12/03 03:01:45;;;;;;;18.63;9.15;;;;;;;;;;5088657;28;20280;-70
2023/12/03 03:04:11;;;;;;;20.33;9.97;;;;;;;;;;5087408;28;20032;-70
2023/12/03 03:06:36;;;;;;;18.17;9.68;;;;;;;;;;5085038;28;20324;-71
2023/12/03 03:09:02;;;;;;;17.77;9.55;;;;;;;;;;5085915;28;20055;-71
2023/12/03 03:11:27;;;;;;;20.27;9.25;;;;;;;;;;5085060;28;20055;-72
2023/12/03 03:13:52;;;;;;;23.10;9.93;;;;;;;;;;5090483;28;20072;-71
2023/12/03 03:16:18;;;;;;;16.87;8.73;;;;;;;;;;5086525;28;20831;-70
2023/12/03 03:18:43;;;;;;;17.98;8.98;;;;;;;;;;5088832;28;20264;-70
2023/12/03 03:21:08;;;;;;;18.08;9.57;;;;;;;;;;5091588;28;20027;-70
2023/12/03 03:23:35;;;;;;;19.70;9.63;;;;;;;;;;5085567;28;20101;-70
2023/12/03 03:26:00;;;;;;;16.77;9.23;;;;;;;;;;5084055;28;20190;-70
2023/12/03 03:28:26;;;;;;;15.95;8.52;;;;;;;;;;5076996;28;20128;-70
2023/12/03 03:30:52;;;;;;;16.55;9.40;;;;;;;;;;5090787;28;20099;-70
2023/12/03 03:33:17;;;;;;;18.05;8.80;;;;;;;;;;5086940;28;20583;-70
2023/12/03 03:35:43;;;;;;;16.33;8.57;;;;;;;;;;5082246;28;20039;-71
2023/12/03 03:38:08;;;;;;;17.92;8.95;;;;;;;;;;5090735;28;20020;-70
2023/12/03 03:40:33;;;;;;;18.95;9.43;;;;;;;;;;5086119;28;20119;-71
2023/12/03 03:42:58;;;;;;;19.07;8.40;;;;;;;;;;5093014;28;20039;-70
2023/12/03 03:45:24;;;;;;;15.60;8.20;;;;;;;;;;5083854;28;20327;-71
2023/12/03 03:47:50;;;;;;;17.05;8.40;;;;;;;;;;5082477;28;20111;-70
2023/12/03 03:50:15;;;;;;;18.05;8.45;;;;;;;;;;5075224;28;20134;-70
2023/12/03 03:52:40;;;;;;;18.35;8.70;;;;;;;;;;5087584;28;20023;-71
2023/12/03 03:55:06;;;;;;;16.83;8.30;;;;;;;;;;5087531;28;20024;-70
2023/12/03 03:57:31;;;;;;;15.77;7.85;;;;;;;;;;5083849;28;20035;-70
2023/12/03 03:59:56;;;;;;;16.83;8.07;;;;;;;;;;5079444;28;20019;-70
2023/12/03 04:02:22;;;;;;;20.43;8.50;;;;;;;;;;5089674;28;20020;-71
2023/12/03 04:04:47;;;;;;;14.90;7.70;;;;;;;;;;5093608;28;20435;-70
2023/12/03 04:07:12;;;;;;;15.48;7.70;;;;;;;;;;5090501;28;20279;-71
2023/12/03 04:09:37;;;;;;;14.30;7.57;;;;;;;;;;5066052;28;20028;-70
2023/12/03 04:12:03;;;;;;;15.02;7.78;;;;;;;;;;5083719;28;20074;-71
2023/12/03 04:14:28;;;;;;;13.65;7.55;;;;;;;;;;5068942;28;20032;-71
2023/12/03 04:16:56;;;;;;;13.95;7.63;;;;;;;;;;5072707;28;20081;-71
2023/12/03 04:19:21;;;;;;;15.50;8.43;;;;;;;;;;5089773;28;20084;-71
2023/12/03 04:21:47;;;;;;;17.88;7.57;;;;;;;;;;5086818;28;20020;-71
2023/12/03 04:24:12;;;;;;;13.88;7.60;;;;;;;;;;5059896;28;20028;-72
2023/12/03 04:26:40;;;;;;;13.90;7.15;;;;;;;;;;5086743;28;20169;-71
2023/12/03 04:29:06;;;;;;;13.60;7.28;;;;;;;;;;5087757;28;20034;-71
2023/12/03 04:31:31;;;;;;;16.77;7.57;;;;;;;;;;5082682;28;20024;-71
2023/12/03 04:33:56;;;;;;;14.60;7.77;;;;;;;;;;5094843;28;20008;-71
2023/12/03 04:36:23;;;;;;;15.02;7.30;;;;;;;;;;5104474;28;20273;-71
2023/12/03 04:38:49;;;;;;;14.98;7.72;;;;;;;;;;5087693;28;20096;-70
2023/12/03 04:41:14;;;;;;;14.82;7.13;;;;;;;;;;5095508;28;20015;-71
2023/12/03 04:43:40;;;;;;;15.30;7.55;;;;;;;;;;5087037;28;20020;-71
2023/12/03 04:46:06;;;;;;;14.30;7.70;;;;;;;;;;5079033;28;20406;-71
2023/12/03 04:48:31;;;;;;;13.90;7.05;;;;;;;;;;5084568;28;20032;-72
2023/12/03 04:50:57;;;;;;;15.00;7.75;;;;;;;;;;5087984;28;20051;-72
2023/12/03 04:53:22;;;;;;;12.95;6.75;;;;;;;;;;5072151;28;20023;-71
2023/12/03 04:55:47;;;;;;;14.73;7.25;;;;;;;;;;5087524;28;20097;-71
2023/12/03 04:58:13;;;;;;;13.27;6.90;;;;;;;;;;5082491;28;20042;-71
2023/12/03 05:00:38;;;;;;;13.18;6.75;;;;;;;;;;5093194;28;20746;-71
2023/12/03 05:03:03;;;;;;;15.43;7.43;;;;;;;;;;5087632;28;20085;-72
2023/12/03 05:05:28;;;;;;;14.23;7.60;;;;;;;;;;5086216;28;20271;-72
2023/12/03 05:07:54;;;;;;;16.02;7.97;;;;;;;;;;5083120;28;20264;-71
2023/12/03 05:10:19;;;;;;;14.25;7.25;;;;;;;;;;5073819;28;20032;-71
2023/12/03 05:12:44;;;;;;;15.82;7.70;;;;;;;;;;5088151;28;20060;-71
2023/12/03 05:15:10;;;;;;;16.85;8.10;;;;;;;;;;5073734;28;20047;-71
2023/12/03 05:17:36;;;;;;;12.52;6.55;;;;;;;;;;5071242;28;20031;-71
2023/12/03 05:20:01;;;;;;;16.02;7.45;;;;;;;;;;5069477;28;20096;-71
2023/12/03 05:22:26;;;;;;;12.15;6.75;;;;;;;;;;5072994;28;20023;-71
2023/12/03 05:24:51;;;;;;;14.20;6.93;;;;;;;;;;5082641;28;20021;-70
2023/12/03 05:27:17;;;;;;;13.63;7.00;;;;;;;;;;5087406;28;20047;-70
2023/12/03 05:29:43;;;;;;;16.93;6.97;;;;;;;;;;5083186;28;20277;-70
2023/12/03 05:32:08;;;;;;;14.95;7.60;;;;;;;;;;5084506;28;20930;-71
2023/12/03 05:34:34;;;;;;;15.65;7.85;;;;;;;;;;5082882;28;20067;-71
2023/12/03 05:36:59;;;;;;;13.70;7.13;;;;;;;;;;5074934;28;20398;-71
2023/12/03 05:39:24;;;;;;;18.07;8.20;;;;;;;;;;5093866;28;20036;-71
2023/12/03 05:41:50;;;;;;;17.70;9.30;;;;;;;;;;5088559;28;20265;-71
2023/12/03 05:44:15;;;;;;;13.82;8.00;;;;;;;;;;5083001;28;20063;-70
2023/12/03 05:46:41;;;;;;;17.17;9.23;;;;;;;;;;5069186;28;20371;-71
2023/12/03 05:49:08;;;;;;;19.10;9.65;;;;;;;;;;5085502;28;20024;-71
2023/12/03 05:51:34;;;;;;;25.48;11.15;;;;;;;;;;5086783;28;20043;-70
2023/12/03 05:53:59;;;;;;;25.15;10.95;;;;;;;;;;5082665;28;20862;-72
2023/12/03 05:56:24;;;;;;;27.08;11.27;;;;;;;;;;5081031;28;20035;-71
2023/12/03 05:58:50;;;;;;;23.08;10.45;;;;;;;;;;5079679;28;20035;-70
2023/12/03 06:01:24;;;;;;;20.40;9.45;;;;;;;;;;5084508;28;20534;-72
2023/12/03 06:03:50;;;;;;;21.38;9.95;;;;;;;;;;5090605;28;20028;-71
2023/12/03 06:06:16;;;;;;;19.70;9.38;;;;;;;;;;5098424;28;20023;-72
2023/12/03 06:08:42;;;;;;;19.70;9.02;;;;;;;;;;5081022;28;20032;-71
2023/12/03 06:11:07;;;;;;;18.25;9.05;;;;;;;;;;5083295;28;20028;-71
2023/12/03 06:13:32;;;;;;;18.43;9.27;;;;;;;;;;5094785;28;20109;-72
2023/12/03 06:15:58;;;;;;;19.38;9.55;;;;;;;;;;5089936;28;20272;-70
2023/12/03 06:18:23;;;;;;;17.85;9.25;;;;;;;;;;5087202;28;20149;-70
2023/12/03 06:20:48;;;;;;;17.98;8.82;;;;;;;;;;5083450;28;20385;-70
2023/12/03 06:23:14;;;;;;;16.60;8.93;;;;;;;;;;5081677;28;20761;-71
2023/12/03 06:25:39;;;;;;;20.83;8.60;;;;;;;;;;5073704;28;20024;-70
2023/12/03 06:28:04;;;;;;;17.55;8.50;;;;;;;;;;5078324;28;20031;-70
2023/12/03 06:30:30;;;;;;;19.30;9.68;;;;;;;;;;5086906;28;20024;-71
2023/12/03 06:32:55;;;;;;;20.98;10.77;;;;;;;;;;5082031;28;20432;-70
2023/12/03 06:35:20;;;;;;;19.38;10.38;;;;;;;;;;5097496;28;20081;-70
2023/12/03 06:37:45;;;;;;;17.92;9.25;;;;;;;;;;5094916;28;20035;-69
2023/12/03 06:40:11;;;;;;;18.15;9.48;;;;;;;;;;5087600;28;20048;-71
2023/12/03 06:42:36;;;;;;;21.08;10.52;;;;;;;;;;5073612;28;20020;-71
2023/12/03 06:45:02;;;;;;;18.25;9.68;;;;;;;;;;5069822;28;20090;-70
2023/12/03 06:47:27;;;;;;;19.73;9.93;;;;;;;;;;5078283;28;20031;-71
2023/12/03 06:49:52;;;;;;;20.10;9.70;;;;;;;;;;5089964;28;20111;-70
2023/12/03 06:52:18;;;;;;;19.05;9.15;;;;;;;;;;5086298;28;20040;-70
2023/12/03 06:54:43;;;;;;;21.07;10.20;;;;;;;;;;5083090;28;20527;-71
2023/12/03 06:57:08;;;;;;;24.57;11.43;;;;;;;;;;5085980;28;20288;-72
2023/12/03 06:59:33;;;;;;;22.57;10.30;;;;;;;;;;5096510;28;20710;-72
2023/12/03 07:01:59;;;;;;;22.60;10.60;;;;;;;;;;5092776;28;20276;-70
2023/12/03 07:04:24;;;;;;;21.77;10.90;;;;;;;;;;5090254;28;20827;-71
2023/12/03 07:06:49;;;;;;;20.63;9.53;;;;;;;;;;5089809;28;20330;-73
2023/12/03 07:09:15;;;;;;;17.77;9.47;;;;;;;;;;5085859;28;21167;-73
2023/12/03 07:11:40;;;;;;;26.48;11.98;;;;;;;;;;5090974;28;20284;-73
2023/12/03 07:14:06;;;;;;;21.80;10.98;;;;;;;;;;5086921;28;20035;-73
2023/12/03 07:16:31;;;;;;;20.85;10.23;;;;;;;;;;5071632;28;20035;-72
2023/12/03 07:18:57;;;;;;;18.48;9.85;;;;;;;;;;5083454;28;20020;-72
2023/12/03 07:21:22;;;;;;;47.13;21.10;;;;;;;;;;5067982;28;20024;-73
2023/12/03 07:23:48;;;;;;;22.70;10.90;;;;;;;;;;5086765;28;20034;-75
2023/12/03 07:26:13;;;;;;;22.45;12.45;;;;;;;;;;5068725;28;20032;-76
2023/12/03 07:28:38;;;;;;;33.42;15.63;;;;;;;;;;5087280;28;20067;-75
2023/12/03 07:31:04;;;;;;;25.58;12.25;;;;;;;;;;5085384;28;20028;-76
2023/12/03 07:33:30;;;;;;;21.40;11.57;;;;;;;;;;5070050;28;20024;-75
2023/12/03 07:35:56;;;;;;;23.50;11.85;;;;;;;;;;5068845;28;20107;-75
2023/12/03 07:38:21;;;;;;;26.85;12.95;;;;;;;;;;5070068;28;20457;-74
2023/12/03 07:40:46;;;;;;;33.47;15.80;;;;;;;;;;5085741;28;20487;-75
2023/12/03 07:43:12;;;;;;;71.30;30.85;;;;;;;;;;5083571;28;20275;-76
2023/12/03 07:45:37;;;;;;;45.65;21.45;;;;;;;;;;5074386;28;20353;-76
2023/12/03 07:48:02;;;;;;;72.32;29.23;;;;;;;;;;5084896;28;20169;-76
2023/12/03 07:50:28;;;;;;;24.58;11.90;;;;;;;;;;5091318;28;20134;-74
2023/12/03 07:52:53;;;;;;;74.63;31.52;;;;;;;;;;5088225;28;20017;-76
2023/12/03 07:55:18;;;;;;;40.85;18.23;;;;;;;;;;5085683;28;20106;-73
2023/12/03 07:57:45;;;;;;;23.08;12.05;;;;;;;;;;5086167;28;20032;-75
2023/12/03 08:00:10;;;;;;;18.85;9.57;;;;;;;;;;5103669;28;20031;-74
2023/12/03 08:02:35;;;;;;;17.90;9.15;;;;;;;;;;5104685;28;20035;-74
2023/12/03 08:05:01;;;;;;;18.20;8.73;;;;;;;;;;5090259;28;20020;-74
2023/12/03 08:07:26;;;;;;;19.35;9.75;;;;;;;;;;5077310;28;20397;-73
2023/12/03 08:09:51;;;;;;;48.38;22.65;;;;;;;;;;5088094;28;20020;-76
2023/12/03 08:12:17;;;;;;;23.25;11.95;;;;;;;;;;5088826;28;20028;-76
2023/12/03 08:14:42;;;;;;;38.20;18.50;;;;;;;;;;5084912;28;20531;-76
2023/12/03 08:17:12;;;;;;;30.92;14.85;;;;;;;;;;5068030;28;20035;-75
2023/12/03 08:19:37;;;;;;;;;;;;;;;;;;5089079;28;20030;-74
2023/12/03 08:22:02;;;;;;;20.90;12.07;;;;;;;;;;5094538;28;19916;-73
2023/12/03 08:24:28;;;;;;;16.33;8.75;;;;;;;;;;5091281;28;20071;-71
2023/12/03 08:26:53;;;;;;;15.95;8.07;;;;;;;;;;5086135;28;20077;-74
2023/12/03 08:29:18;;;;;;;17.23;8.10;;;;;;;;;;5079808;28;20024;-74
2023/12/03 08:31:45;;;;;;;15.15;7.60;;;;;;;;;;5090109;28;20038;-74
2023/12/03 08:34:10;;;;;;;15.98;7.82;;;;;;;;;;5087203;28;20036;-73
2023/12/03 08:36:36;;;;;;;17.40;8.73;;;;;;;;;;5085699;28;20027;-73
2023/12/03 08:39:05;;;;;;;17.77;9.77;;;;;;;;;;5089334;28;20027;-73
2023/12/03 08:41:30;;;;;;;36.65;18.48;;;;;;;;;;5089923;28;20020;-74
2023/12/03 08:43:56;;;;;;;23.20;11.77;;;;;;;;;;5085931;28;20359;-75
2023/12/03 08:46:21;;;;;;;16.93;9.70;;;;;;;;;;5087788;28;20390;-75
2023/12/03 08:48:46;;;;;;;19.52;9.73;;;;;;;;;;5085142;28;20313;-74
2023/12/03 08:51:12;;;;;;;16.00;8.80;;;;;;;;;;5087385;28;20056;-75
2023/12/03 08:53:37;;;;;;;17.02;8.77;;;;;;;;;;5064038;28;20103;-74
2023/12/03 08:56:02;;;;;;;21.47;11.57;;;;;;;;;;5082089;28;20544;-75
2023/12/03 08:58:28;;;;;;;21.15;10.57;;;;;;;;;;5077993;28;20274;-75
2023/12/03 09:00:53;;;;;;;31.02;13.45;;;;;;;;;;5085516;28;20035;-75
2023/12/03 09:03:18;;;;;;;19.35;9.82;;;;;;;;;;5064937;28;20062;-74
2023/12/03 09:05:43;;;;;;;18.48;9.43;;;;;;;;;;5078649;28;20032;-74
2023/12/03 09:08:09;;;;;;;16.90;9.30;;;;;;;;;;5081954;28;20109;-70
2023/12/03 09:10:34;;;;;;;17.00;8.83;;;;;;;;;;5084840;28;20028;-70
2023/12/03 09:12:59;;;;;;;25.55;14.52;;;;;;;;;;5079367;28;20288;-70
2023/12/03 09:15:24;;;;;;;21.70;10.90;;;;;;;;;;5077776;28;20032;-70
2023/12/03 09:17:50;;;;;;;17.07;9.10;;;;;;;;;;5073193;28;20806;-70
2023/12/03 09:20:15;;;;;;;17.95;8.40;;;;;;;;;;5078504;28;20304;-72
2023/12/03 09:22:41;;;;;;;17.33;8.98;;;;;;;;;;5084724;28;20031;-71
2023/12/03 09:25:06;;;;;;;15.23;9.23;;;;;;;;;;5079535;28;20044;-70
2023/12/03 09:27:33;;;;;;;16.77;8.65;;;;;;;;;;5078335;28;20522;-71
2023/12/03 09:29:58;;;;;;;16.58;8.70;;;;;;;;;;5078388;28;20123;-72
2023/12/03 09:32:23;;;;;;;21.50;10.43;;;;;;;;;;5080640;28;20118;-71
2023/12/03 09:34:49;;;;;;;14.75;7.93;;;;;;;;;;5068039;28;20085;-72
2023/12/03 09:37:14;;;;;;;17.23;8.63;;;;;;;;;;5065931;28;20113;-72
2023/12/03 09:39:39;;;;;;;17.55;9.57;;;;;;;;;;5083872;28;20291;-69
2023/12/03 09:42:07;;;;;;;17.30;8.97;;;;;;;;;;5081348;28;20028;-68
2023/12/03 09:44:39;;;;;;;13.98;8.20;;;;;;;;;;5080971;28;20280;-69
2023/12/03 09:47:05;;;;;;;15.43;7.90;;;;;;;;;;5083045;28;20016;-69
2023/12/03 09:49:31;;;;;;;13.73;7.28;;;;;;;;;;5084977;28;20123;-70
2023/12/03 09:51:59;;;;;;;17.02;8.32;;;;;;;;;;5068473;28;20114;-69
2023/12/03 09:54:24;;;;;;;25.77;12.05;;;;;;;;;;5083610;28;20033;-70
2023/12/03 09:56:51;;;;;;;22.95;12.00;;;;;;;;;;5086451;28;20028;-68
2023/12/03 09:59:17;;;;;;;45.05;22.90;;;;;;;;;;5089046;28;20028;-69
2023/12/03 10:01:42;;;;;;;51.17;26.35;;;;;;;;;;5061193;28;20031;-69
2023/12/03 10:04:08;;;;;;;40.65;18.80;;;;;;;;;;5082600;28;20031;-68
2023/12/03 10:06:34;;;;;;;25.10;13.25;;;;;;;;;;5081179;28;20040;-70
2023/12/03 10:09:02;;;;;;;20.92;10.02;;;;;;;1.93;nan;101000.28;5086201;28;20405;-68
2023/12/03 10:11:32;;;;;;;20.20;10.10;;;;;;;;;;5080182;28;20375;-70
2023/12/03 10:14:01;;;;;;;74.90;30.83;;;;;;;;;;5087900;28;20061;-68
2023/12/03 10:16:26;;;;;;;30.83;13.80;;;;;;;;;;5078301;28;20444;-68
2023/12/03 10:18:54;;;;;;;22.75;11.73;;;;;;;;;;5081123;28;20678;-67
2023/12/03 10:21:20;;;;;;;26.17;14.13;;;;;;;;;;5080445;28;20085;-67
2023/12/03 10:23:55;;;;;;;19.13;10.23;;;;;;;;;;5060427;28;20040;-68
2023/12/03 10:26:21;;;;;;;14.80;8.70;;;;;;;;;;5075338;28;21229;-69
2023/12/03 10:28:46;;;;;;;16.70;9.00;;;;;;;;;;5080257;28;20078;-68
2023/12/03 10:31:15;;;;;;;22.03;9.63;;;;;;;;;;5086672;28;20287;-71
2023/12/03 10:33:44;;;;;;;26.75;13.40;;;;;;;;;;5087770;28;20303;-71
2023/12/03 10:36:10;;;;;;;29.15;14.93;;;;;;;;;;5086127;28;20023;-71
2023/12/03 10:38:36;;;;;;;40.55;21.33;;;;;;;;;;5083703;28;20463;-71
2023/12/03 10:41:03;;;;;;;29.23;15.60;;;;;;;;;;5078259;28;20977;-71
2023/12/03 10:43:28;;;;;;;20.13;10.00;;;;;;;;;;5083462;28;20497;-71
2023/12/03 10:45:57;;;;;;;17.27;9.50;;;;;;;;;;5071688;28;20031;-73
2023/12/03 10:48:23;;;;;;;39.90;16.92;;;;;;;;;;5062593;28;20118;-72
2023/12/03 10:50:48;;;;;;;61.55;23.48;;;;;;;;;;5081080;28;20131;-71
2023/12/03 10:53:15;;;;;;;21.10;10.55;;;;;;;;;;5069062;28;20127;-72
2023/12/03 10:55:40;;;;;;;17.58;9.52;;;;;;;;;;5089369;28;20043;-72
2023/12/03 10:58:05;;;;;;;29.85;15.25;;;;;;;;;;5081988;28;20103;-72
2023/12/03 11:00:55;;;;;;;38.30;19.10;;;;;;;;;;5085280;28;20043;-74
2023/12/03 11:03:24;;;;;;;17.98;10.43;;;;;;;;;;5083392;28;20709;-72
2023/12/03 11:05:52;;;;;;;32.00;14.80;;;;;;;;;;5081312;28;20442;-72
2023/12/03 11:08:20;;;;;;;18.88;9.80;;;;;;;;;;5079661;28;20029;-72
2023/12/03 11:10:45;;;;;;;15.05;8.45;;;;;;;;;;5089693;28;20031;-71
2023/12/03 11:13:11;;;;;;;18.65;9.23;;;;;;;;;;5085582;28;20038;-72
2023/12/03 11:15:40;;;;;;;18.30;9.05;;;;;;;;;;5084855;28;20547;-71
2023/12/03 11:18:06;;;;;;;51.97;24.20;;;;;;;;;;5071138;28;20387;-70
2023/12/03 11:20:36;;;;;;;53.42;25.05;;;;;;;;;;5087017;28;20036;-71
2023/12/03 11:23:12;;;;;;;41.05;22.92;;;;;;;;;;5083440;28;20028;-73
2023/12/03 11:25:51;;;;;;;22.10;10.98;;;;;;;;;;5068446;28;20114;-73
2023/12/03 11:28:17;;;;;;;17.67;9.07;;;;;;;;;;5089334;28;20052;-72
2023/12/03 11:30:42;;;;;;;16.10;8.90;;;;;;;;;;5105921;28;20020;-73
2023/12/03 11:33:13;;;;;;;20.33;9.65;;;;;;;;;;5076450;28;20074;-73
2023/12/03 11:35:42;;;;;;;16.48;8.68;;;;;;;;;;5090546;28;20473;-73
2023/12/03 11:38:13;;;;;;;16.25;8.68;;;;;;;;;;5067509;28;20058;-72
2023/12/03 11:40:38;;;;;;;14.88;7.35;;;;;;;;;;5086021;28;20040;-73
2023/12/03 11:43:06;;;;;;;14.25;7.57;;;;;;;;;;5098233;28;20019;-72
2023/12/03 11:45:31;;;;;;;15.48;7.75;;;;;;;;;;5097409;28;20316;-72
2023/12/03 11:48:06;;;;;;;13.40;7.30;;;;;;;;;;5093025;28;20016;-72
2023/12/03 11:50:31;;;;;;;14.15;7.63;;;;;;;;;;5097314;28;20052;-73
2023/12/03 11:52:57;;;;;;;16.55;7.65;;;;;;;;;;5106894;28;20027;-73
2023/12/03 11:55:22;;;;;;;14.57;8.30;;;;;;;;;;5114039;28;20047;-72
2023/12/03 11:57:53;;;;;;;14.07;7.13;;;;;;;;;;5111872;28;20023;-74
2023/12/03 12:00:19;;;;;;;14.80;7.45;;;;;;;;;;5093835;28;20028;-72
2023/12/03 12:02:44;;;;;;;13.77;7.47;;;;;;;;;;5089523;28;20052;-73
2023/12/03 12:05:10;;;;;;;13.73;7.88;;;;;;;;;;5095801;28;20079;-72
2023/12/03 12:07:35;;;;;;;12.98;7.35;;;;;;;;;;5088760;28;20032;-72
2023/12/03 12:10:07;;;;;;;15.43;8.07;;;;;;;;;;5085911;28;20040;-73
2023/12/03 12:12:32;;;;;;;15.93;8.20;;;;;;;;;;5082029;28;20651;-73
2023/12/03 12:14:57;;;;;;;16.50;7.93;;;;;;;;;;5083752;28;20024;-72
2023/12/03 12:17:22;;;;;;;17.90;8.95;;;;;;;;;;5085937;28;20490;-72
2023/12/03 12:19:48;;;;;;;20.10;10.38;;;;;;;;;;5083339;28;20032;-72
2023/12/03 12:22:19;;;;;;;19.02;9.60;;;;;;;;;;5085001;28;20074;-72
2023/12/03 12:24:45;;;;;;;19.55;9.35;;;;;;;;;;5085709;28;20023;-72
2023/12/03 12:27:10;;;;;;;19.08;9.10;;;;;;;;;;5067089;28;20024;-73
2023/12/03 12:29:35;;;;;;;15.88;8.38;;;;;;;;;;5086673;28;20035;-73
2023/12/03 12:32:01;;;;;;;14.38;7.78;;;;;;;;;;5089282;28;20447;-73
2023/12/03 12:34:28;;;;;;;15.38;7.43;;;;;;;;;;5084410;28;20508;-73
2023/12/03 12:37:08;;;;;;;12.13;7.07;;;;;;;;;;5080956;28;20032;-73
2023/12/03 12:39:34;;;;;;;13.95;7.45;;;;;;;;;;5068660;28;20023;-73
2023/12/03 12:41:59;;;;;;;16.38;8.77;;;;;;;;;;5089270;28;20016;-72
2023/12/03 12:44:44;;;;;;;15.68;8.68;;;;;;;;;;5072579;28;20398;-71
2023/12/03 12:47:10;;;;;;;13.00;7.07;;;;;;;;;;5080193;28;20063;-69
2023/12/03 12:49:36;;;;;;;15.70;8.15;;;;;;;;;;5061974;28;20546;-72
2023/12/03 12:52:11;;;;;;;15.05;7.97;;;;;;;;;;5073144;28;20024;-73
2023/12/03 12:54:44;;;;;;;15.23;8.00;;;;;;;;;;5061046;28;20050;-74
2023/12/03 12:57:09;;;;;;;17.02;7.85;;;;;;;;;;5071085;28;20024;-73
2023/12/03 12:59:34;;;;;;;12.60;6.63;;;;;;;;;;5070046;28;20063;-74
2023/12/03 13:02:02;;;;;;;13.48;6.75;;;;;;;;;;5064239;28;20028;-72
2023/12/03 13:04:33;;;;;;;12.02;6.57;;;;;;;;;;5086158;28;20032;-72
2023/12/03 13:07:05;;;;;;;13.20;6.85;;;;;;;;;;5072567;28;20408;-72
2023/12/03 13:09:30;;;;;;;12.57;6.68;;;;;;;;;;5089245;28;20023;-72
2023/12/03 13:11:56;;;;;;;12.85;6.75;;;;;;;;;;5064088;28;20424;-72
2023/12/03 13:14:21;;;;;;;12.93;7.15;;;;;;;;;;5069272;28;20032;-73
2023/12/03 13:16:47;;;;;;;16.30;7.57;;;;;;;;;;5086271;28;20485;-72
2023/12/03 13:19:12;;;;;;;15.65;7.72;;;;;;;;;;5084950;28;20082;-72
2023/12/03 13:21:37;;;;;;;14.75;7.50;;;;;;;;;;5086404;28;20528;-72
2023/12/03 13:24:03;;;;;;;14.07;7.47;;;;;;;;;;5080466;28;20450;-71
2023/12/03 13:26:28;;;;;;;16.98;7.80;;;;;;;;;;5084153;28;20032;-71
2023/12/03 13:28:56;;;;;;;11.27;6.47;;;;;;;;;;5081081;28;20032;-72
2023/12/03 13:31:21;;;;;;;15.32;7.45;;;;;;;;;;5085603;28;20039;-71
2023/12/03 13:33:46;;;;;;;17.13;8.60;;;;;;;;;;5080996;28;20035;-73
2023/12/03 13:36:13;;;;;;;17.70;8.05;;;;;;;;;;5067671;28;20666;-73
2023/12/03 13:38:40;;;;;;;18.75;8.95;;;;;;;;;;5086602;28;20084;-73
2023/12/03 13:41:05;;;;;;;16.25;8.68;;;;;;;;;;5087278;28;20027;-72
2023/12/03 13:43:33;;;;;;;15.25;7.85;;;;;;;;;;5085997;28;20065;-74
2023/12/03 13:45:58;;;;;;;15.57;7.55;;;;;;;;;;5086558;28;20562;-74
2023/12/03 13:48:24;;;;;;;16.52;7.72;;;;;;;;;;5079640;28;20037;-74
2023/12/03 13:50:49;;;;;;;13.70;7.40;;;;;;;;;;5081532;28;20059;-73
2023/12/03 13:53:16;;;;;;;12.95;7.25;;;;;;;;;;5084194;28;20047;-73
2023/12/03 13:55:41;;;;;;;14.77;7.38;;;;;;;;;;5062568;28;20032;-72
2023/12/03 13:58:06;;;;;;;14.00;7.07;;;;;;;;;;5085892;28;20055;-72
2023/12/03 14:00:32;;;;;;;17.25;7.72;;;;;;;;;;5080099;28;20019;-72
2023/12/03 14:02:57;;;;;;;18.33;7.72;;;;;;;;;;5084639;28;20023;-73
2023/12/03 14:05:23;;;;;;;15.90;7.53;;;;;;;;;;5086720;28;20024;-72
2023/12/03 14:07:48;;;;;;;16.83;8.70;;;;;;;;;;5079800;28;20063;-73
2023/12/03 14:10:13;;;;;;;12.77;6.80;;;;;;;;;;5083387;28;20474;-72
2023/12/03 14:12:39;;;;;;;14.57;7.43;;;;;;;;;;5080110;28;20071;-72
2023/12/03 14:15:05;;;;;;;14.70;7.35;;;;;;;;;;5085251;28;20031;-72